Time;durP1;ratioP1;P1;durP2;ratioP2;P2;SDS_P1;SDS_P2;PMS_P1;PMS_P2;Temp;Humidity;BMP_temperature;BMP_pressure;BME280_temperature;BME280_humidity;BME280_pressure;Samples;Min_cycle;Max_cycle;Signal;HPM_P1;HPM_P2
2021/12/02 00:01:58;;;;;;;3.35;1.00;;;;;;;;;;5119486;27;20056;-68
2021/12/02 00:04:27;;;;;;;3.38;1.00;;;;;;;;;;5123257;27;20067;-68
2021/12/02 00:06:53;;;;;;;22.05;1.92;;;;;;;;;;5120400;27;20078;-67
2021/12/02 00:09:19;;;;;;;6.53;1.38;;;;;;;;;;5117265;27;20154;-67
2021/12/02 00:11:46;;;;;;;5.90;1.30;;;;;;;;;;5135798;27;20054;-67
2021/12/02 00:14:14;;;;;;;6.28;1.00;;;;;;;;;;5132497;27;20047;-68
2021/12/02 00:16:53;;;;;;;3.08;1.00;;;;;;;;;;5120490;27;20051;-67
2021/12/02 00:22:05;;;;;;;5.03;1.00;;;;;;;;;;5138030;27;20525;-67
2021/12/02 00:24:35;;;;;;;6.68;1.55;;;;;;;;;;5133478;27;20055;-67
2021/12/02 00:27:06;;;;;;;10.18;2.13;;;;;;;;;;5124557;27;20062;-67
2021/12/02 00:29:33;;;;;;;4.38;1.17;;;;;;;;;;5154422;27;20098;-68
2021/12/02 00:32:02;;;;;;;4.85;1.33;;;;;;;;;;5138675;27;20109;-68
2021/12/02 00:34:29;;;;;;;9.00;1.25;;;;;;;;;;5139813;27;20042;-68
2021/12/02 00:36:56;;;;;;;3.78;1.10;;;;;;;;;;5116854;27;20139;-68
2021/12/02 00:39:22;;;;;;;6.47;1.02;;;;;;;;;;5131261;27;20055;-67
2021/12/02 00:41:49;;;;;;;5.32;1.08;;;;;;;;;;5145446;27;20058;-67
2021/12/02 00:44:16;;;;;;;5.35;1.23;;;;;;;;;;5125339;27;20054;-68
2021/12/02 00:46:43;;;;;;;8.73;1.35;;;;;;;;;;5129540;27;20046;-67
2021/12/02 00:49:11;;;;;;;6.13;1.10;;;;;;;;;;5129569;27;20157;-68
2021/12/02 00:51:39;;;;;;;4.32;1.00;;;;;;;;;;5102250;28;20052;-68
2021/12/02 00:54:06;;;;;;;4.30;0.88;;;;;;;;;;5128944;27;20055;-67
2021/12/02 00:56:33;;;;;;;6.63;0.90;;;;;;;;;;5114187;27;20056;-67
2021/12/02 00:58:59;;;;;;;4.30;0.90;;;;;;;;;;5127359;27;20500;-68
2021/12/02 01:01:27;;;;;;;4.28;0.90;;;;;;;;;;5142694;27;20051;-68
2021/12/02 01:03:55;;;;;;;0.65;0.45;;;;;;;;;;5128180;27;20124;-67
2021/12/02 01:06:22;;;;;;;2.10;0.90;;;;;;;;;;5127272;27;20052;-68
2021/12/02 01:08:48;;;;;;;3.65;0.90;;;;;;;;;;5113816;27;20090;-68
2021/12/02 01:11:17;;;;;;;5.05;0.93;;;;;;;;;;5145608;27;20052;-67
2021/12/02 01:13:43;;;;;;;7.03;0.70;;;;;;;;;;5112684;27;20052;-68
2021/12/02 01:16:10;;;;;;;6.63;1.25;;;;;;;;;;5122196;27;20058;-68
2021/12/02 01:18:36;;;;;;;3.25;0.95;;;;;;;;;;5130198;27;20040;-68
2021/12/02 01:21:03;;;;;;;4.07;1.33;;;;;;;;;;5128699;27;20063;-68
2021/12/02 01:23:31;;;;;;;2.22;0.60;;;;;;;;;;5132981;27;20051;-67
2021/12/02 01:26:05;;;;;;;1.90;0.80;;;;;;;;;;5130556;27;20048;-67
2021/12/02 01:28:31;;;;;;;6.85;1.08;;;;;;;;;;5125417;27;20051;-67
2021/12/02 01:30:58;;;;;;;6.95;0.82;;;;;;;;;;5131898;27;20062;-67
2021/12/02 01:33:26;;;;;;;3.58;0.90;;;;;;;;;;5117126;27;20058;-67
2021/12/02 01:36:00;;;;;;;4.70;0.82;;;;;;;;;;5136083;27;20582;-67
2021/12/02 01:38:27;;;;;;;4.28;0.93;;;;;;;;;;5115698;27;20048;-66
2021/12/02 01:40:54;;;;;;;6.40;1.00;;;;;;;;;;5138271;27;20580;-67
2021/12/02 01:43:29;;;;;;;1.98;1.02;;;;;;;;;;5136042;27;20052;-67
2021/12/02 01:45:56;;;;;;;8.60;1.30;;;;;;;;;;5136338;27;20058;-68
2021/12/02 01:48:24;;;;;;;7.85;2.10;;;;;;;;;;5127993;27;20086;-68
2021/12/02 01:51:01;;;;;;;5.75;1.15;;;;;;;;;;5128460;27;20050;-67
2021/12/02 01:53:30;;;;;;;2.47;0.82;;;;;;;;;;5117862;27;20131;-67
2021/12/02 01:56:09;;;;;;;8.55;1.50;;;;;;;;;;5115789;28;20448;-68
2021/12/02 01:58:51;;;;;;;3.13;0.82;;;;;;;;;;5132020;27;20131;-67
2021/12/02 02:01:27;;;;;;;6.38;1.30;;;;;;;;;;5134523;27;20062;-67
2021/12/02 02:03:54;;;;;;;1.67;0.65;;;;;;;;;;5129898;27;20109;-67
2021/12/02 02:06:29;;;;;;;4.78;2.35;;;;;;;;;;5115681;27;20048;-67
2021/12/02 02:08:56;;;;;;;1.42;0.40;;;;;;;;;;5126802;27;20124;-67
2021/12/02 02:11:24;;;;;;;3.60;0.68;;;;;;;;;;5123305;27;20057;-67
2021/12/02 02:13:50;;;;;;;6.10;1.10;;;;;;;;;;5135902;27;20044;-68
2021/12/02 02:16:17;;;;;;;4.47;0.90;;;;;;;;;;5137183;27;20499;-67
2021/12/02 02:18:43;;;;;;;3.72;0.93;;;;;;;;;;5133185;27;20051;-67
2021/12/02 02:21:12;;;;;;;3.67;0.80;;;;;;;;;;5139712;27;20047;-67
2021/12/02 02:23:44;;;;;;;9.15;1.02;;;;;;;;;;5120977;27;20087;-66
2021/12/02 02:26:10;;;;;;;3.92;1.13;;;;;;;;;;5123610;27;20131;-67
2021/12/02 02:28:37;;;;;;;3.28;0.90;;;;;;;;;;5133277;27;20574;-67
2021/12/02 02:31:03;;;;;;;4.47;0.85;;;;;;;;;;5121276;27;20546;-67
2021/12/02 02:33:36;;;;;;;5.07;1.23;;;;;;;;;;5118122;27;20508;-67
2021/12/02 02:36:06;;;;;;;5.70;0.80;;;;;;;;;;5117945;27;20142;-67
2021/12/02 02:38:34;;;;;;;3.67;0.57;;;;;;;;;;5118659;27;20172;-67
2021/12/02 02:41:02;;;;;;;11.93;1.13;;;;;;;;;;5126105;27;20544;-66
2021/12/02 02:43:31;;;;;;;6.05;1.08;;;;;;;;;;5117676;27;20437;-66
2021/12/02 02:45:57;;;;;;;3.30;0.60;;;;;;;;;;5132364;27;20131;-67
2021/12/02 02:48:24;;;;;;;5.18;1.15;;;;;;;;;;5133627;27;20519;-67
2021/12/02 02:50:50;;;;;;;4.80;0.57;;;;;;;;;;5127391;27;20055;-67
2021/12/02 02:53:20;;;;;;;3.38;0.80;;;;;;;;;;5126383;27;20051;-67
2021/12/02 02:55:59;;;;;;;5.35;0.70;;;;;;;;;;5133421;27;20527;-66
2021/12/02 03:01:24;;;;;;;4.93;1.40;;;;;;;;;;5121363;27;20564;-66
2021/12/02 03:04:11;;;;;;;4.40;0.68;;;;;;;;;;5115716;27;20075;-67
2021/12/02 03:11:58;;;;;;;2.75;0.52;;;;;;;;;;5123141;27;20087;-67
2021/12/02 03:14:34;;;;;;;4.20;1.05;;;;;;;;;;5114119;27;20128;-67
2021/12/02 03:17:00;;;;;;;2.70;0.75;;;;;;;;;;5125260;27;20491;-66
2021/12/02 03:19:27;;;;;;;8.10;1.10;;;;;;;;;;5143630;27;20074;-67
2021/12/02 03:21:56;;;;;;;3.90;0.90;;;;;;;;;;5121226;27;20130;-67
2021/12/02 03:24:23;;;;;;;2.75;0.70;;;;;;;;;;5124351;27;20052;-67
2021/12/02 03:26:50;;;;;;;3.08;0.90;;;;;;;;;;5137941;27;20055;-67
2021/12/02 03:29:16;;;;;;;5.07;0.93;;;;;;;;;;5129802;27;20151;-67
2021/12/02 03:31:43;;;;;;;5.30;0.70;;;;;;;;;;5127088;27;20139;-67
2021/12/02 03:34:09;;;;;;;4.38;0.70;;;;;;;;;;5114134;27;20050;-67
2021/12/02 03:36:36;;;;;;;6.18;0.98;;;;;;;;;;5145335;27;20560;-66
2021/12/02 03:39:06;;;;;;;3.33;0.52;;;;;;;;;;5130742;27;20048;-67
2021/12/02 03:41:33;;;;;;;7.22;0.98;;;;;;;;;;5130748;27;20048;-67
2021/12/02 03:44:00;;;;;;;7.00;1.10;;;;;;;;;;5131203;27;20048;-67
2021/12/02 03:46:26;;;;;;;2.33;0.52;;;;;;;;;;5130137;27;20518;-66
2021/12/02 03:48:53;;;;;;;3.08;0.77;;;;;;;;;;5146485;27;20087;-66
2021/12/02 03:51:20;;;;;;;2.10;1.10;;;;;;;;;;5113782;28;20055;-67
2021/12/02 03:53:46;;;;;;;3.67;0.70;;;;;;;;;;5119351;27;20052;-66
2021/12/02 03:56:13;;;;;;;2.58;1.00;;;;;;;;;;5127113;27;20047;-66
2021/12/02 03:58:41;;;;;;;8.80;1.02;;;;;;;;;;5117099;27;20583;-66
2021/12/02 04:01:08;;;;;;;6.78;0.90;;;;;;;;;;5128752;27;20089;-66
2021/12/02 04:03:34;;;;;;;6.55;1.83;;;;;;;;;;5127758;27;20048;-66
2021/12/02 04:06:01;;;;;;;5.55;0.60;;;;;;;;;;5117652;27;20423;-66
2021/12/02 04:08:31;;;;;;;7.75;0.93;;;;;;;;;;5147730;27;20051;-66
2021/12/02 04:11:17;;;;;;;6.28;0.73;;;;;;;;;;5135039;27;20059;-66
2021/12/02 04:16:30;;;;;;;1.60;0.50;;;;;;;;;;5133043;27;20422;-66
2021/12/02 04:18:56;;;;;;;5.05;0.63;;;;;;;;;;5132738;27;20060;-66
2021/12/02 04:21:23;;;;;;;2.85;0.75;;;;;;;;;;5130013;27;20047;-66
2021/12/02 04:23:49;;;;;;;5.32;0.70;;;;;;;;;;5123926;27;20469;-66
2021/12/02 04:26:15;;;;;;;4.38;0.75;;;;;;;;;;5133378;27;20194;-66
2021/12/02 04:28:42;;;;;;;4.05;0.85;;;;;;;;;;5125256;27;20483;-67
2021/12/02 04:31:08;;;;;;;7.47;1.33;;;;;;;;;;5154472;27;20047;-67
2021/12/02 04:33:34;;;;;;;2.05;0.60;;;;;;;;;;5138419;27;20048;-66
2021/12/02 04:36:01;;;;;;;4.07;0.70;;;;;;;;;;5117155;27;20063;-66
2021/12/02 04:38:28;;;;;;;5.40;0.80;;;;;;;;;;5154242;27;20062;-66
2021/12/02 04:40:55;;;;;;;4.63;0.80;;;;;;;;;;5130044;27;20043;-66
2021/12/02 04:43:22;;;;;;;1.92;1.00;;;;;;;;;;5130084;27;20574;-66
2021/12/02 04:45:48;;;;;;;8.43;0.65;;;;;;;;;;5120728;27;20052;-67
2021/12/02 04:48:15;;;;;;;0.82;0.45;;;;;;;;;;5130808;27;20160;-67
2021/12/02 04:50:42;;;;;;;2.13;0.73;;;;;;;;;;5132675;27;20059;-67
2021/12/02 04:53:09;;;;;;;3.83;0.50;;;;;;;;;;5127397;27;20051;-68
2021/12/02 04:55:35;;;;;;;3.58;0.70;;;;;;;;;;5121118;27;20059;-67
2021/12/02 04:58:02;;;;;;;0.80;0.52;;;;;;;;;;5126592;27;20062;-67
2021/12/02 05:00:28;;;;;;;4.65;0.57;;;;;;;;;;5134912;27;20083;-67
2021/12/02 05:02:55;;;;;;;0.95;0.43;;;;;;;;;;5128111;27;20510;-66
2021/12/02 05:05:22;;;;;;;8.40;0.93;;;;;;;;;;5121117;27;20087;-67
2021/12/02 05:07:52;;;;;;;1.58;0.30;;;;;;;;;;5118480;27;20424;-68
2021/12/02 05:10:19;;;;;;;3.58;1.15;;;;;;;;;;5127843;27;20062;-68
2021/12/02 05:12:45;;;;;;;2.92;0.70;;;;;;;;;;5116317;27;20123;-67
2021/12/02 05:15:12;;;;;;;3.42;0.80;;;;;;;;;;5116246;27;20554;-67
2021/12/02 05:17:38;;;;;;;4.63;0.98;;;;;;;;;;5128134;27;20082;-67
2021/12/02 05:20:05;;;;;;;2.10;0.40;;;;;;;;;;5121036;27;20051;-67
2021/12/02 05:22:32;;;;;;;4.45;0.55;;;;;;;;;;5130565;27;20150;-67
2021/12/02 05:24:58;;;;;;;2.58;0.47;;;;;;;;;;5133828;27;20056;-68
2021/12/02 05:27:24;;;;;;;3.13;0.60;;;;;;;;;;5115956;27;20508;-67
2021/12/02 05:29:51;;;;;;;5.80;0.80;;;;;;;;;;5116097;28;20147;-67
2021/12/02 05:32:17;;;;;;;6.30;0.90;;;;;;;;;;5119157;27;20062;-67
2021/12/02 05:34:47;;;;;;;3.70;0.80;;;;;;;;;;5120166;27;20051;-67
2021/12/02 05:37:20;;;;;;;3.60;0.93;;;;;;;;;;5126734;27;20052;-66
2021/12/02 05:39:46;;;;;;;4.22;0.98;;;;;;;;;;5118386;27;20054;-66
2021/12/02 05:42:12;;;;;;;1.77;1.10;;;;;;;;;;5116412;27;20514;-66
2021/12/02 05:44:40;;;;;;;6.13;1.23;;;;;;;;;;5115535;27;20056;-67
2021/12/02 05:47:06;;;;;;;5.35;1.30;;;;;;;;;;5115208;27;20545;-67
2021/12/02 05:49:33;;;;;;;3.72;1.15;;;;;;;;;;5117055;27;20056;-67
2021/12/02 05:51:59;;;;;;;2.08;0.70;;;;;;;;;;5123323;27;20061;-68
2021/12/02 05:54:25;;;;;;;3.95;0.93;;;;;;;;;;5131229;27;20050;-67
2021/12/02 05:56:52;;;;;;;3.83;0.60;;;;;;;;;;5136208;27;20495;-67
2021/12/02 05:59:18;;;;;;;1.00;0.63;;;;;;;;;;5115805;27;20058;-68
2021/12/02 06:01:44;;;;;;;4.03;0.82;;;;;;;;;;5119943;27;20138;-67
2021/12/02 06:04:11;;;;;;;4.97;0.95;;;;;;;;;;5125328;27;20056;-67
2021/12/02 06:06:37;;;;;;;7.97;1.48;;;;;;;;;;5136305;27;20047;-67
2021/12/02 06:09:05;;;;;;;2.63;0.60;;;;;;;;;;5118633;27;20056;-68
2021/12/02 06:11:31;;;;;;;2.20;0.50;;;;;;;;;;5115365;28;20502;-68
2021/12/02 06:13:57;;;;;;;2.97;0.57;;;;;;;;;;5115576;28;20048;-67
2021/12/02 06:16:24;;;;;;;1.70;0.80;;;;;;;;;;5115969;27;20610;-68
2021/12/02 06:18:50;;;;;;;3.15;0.60;;;;;;;;;;5115939;27;20076;-67
2021/12/02 06:21:16;;;;;;;2.65;0.38;;;;;;;;;;5115432;28;20056;-67
2021/12/02 06:23:43;;;;;;;1.15;0.50;;;;;;;;;;5115178;28;20503;-66
2021/12/02 06:26:10;;;;;;;2.28;0.50;;;;;;;;;;5121632;27;20052;-68
2021/12/02 06:28:36;;;;;;;2.35;0.40;;;;;;;;;;5135715;27;20052;-67
2021/12/02 06:31:02;;;;;;;2.85;0.70;;;;;;;;;;5124924;27;20745;-66
2021/12/02 06:33:35;;;;;;;2.08;0.40;;;;;;;;;;5130884;27;20101;-68
2021/12/02 06:36:01;;;;;;;2.65;0.45;;;;;;;;;;5142012;27;20548;-67
2021/12/02 06:38:28;;;;;;;4.40;0.60;;;;;;;;;;5140072;27;20056;-66
2021/12/02 06:40:54;;;;;;;3.40;0.82;;;;;;;;;;5135225;27;20606;-67
2021/12/02 06:43:20;;;;;;;3.92;0.60;;;;;;;;;;5132567;27;20052;-68
2021/12/02 06:45:47;;;;;;;2.30;1.13;;;;;;;;;;5135634;27;20052;-66
2021/12/02 06:48:14;;;;;;;1.25;0.57;;;;;;;;;;5136843;27;20379;-67
2021/12/02 06:50:41;;;;;;;1.85;0.68;;;;;;;;;;5130082;27;20062;-65
2021/12/02 06:53:07;;;;;;;2.53;1.13;;;;;;;;;;5130807;27;20050;-67
2021/12/02 06:55:34;;;;;;;4.18;0.80;;;;;;;;;;5115061;28;20081;-67
2021/12/02 06:58:00;;;;;;;2.15;0.68;;;;;;;;;;5126753;27;20059;-66
2021/12/02 07:00:27;;;;;;;4.03;1.20;;;;;;;;;;5132441;27;20412;-67
2021/12/02 07:02:53;;;;;;;5.55;1.10;;;;;;;;;;5135232;27;20055;-67
2021/12/02 07:05:22;;;;;;;11.25;1.70;;;;;;;;;;5134839;27;20052;-67
2021/12/02 07:07:49;;;;;;;4.22;1.15;;;;;;;;;;5134403;27;20151;-66
2021/12/02 07:10:22;;;;;;;3.00;1.05;;;;;;;;;;5125325;27;20495;-68
2021/12/02 07:12:52;;;;;;;2.42;1.35;;;;;;;;;;5136339;27;20058;-66
2021/12/02 07:15:34;;;;;;;4.35;1.30;;;;;;;;;;5134909;27;20138;-67
2021/12/02 07:18:01;;;;;;;6.95;1.20;;;;;;;;;;5134043;27;20078;-66
2021/12/02 07:20:34;;;;;;;4.28;1.60;;;;;;;;;;5122389;27;20054;-66
2021/12/02 07:23:00;;;;;;;5.75;1.60;;;;;;;;;;5134070;27;20051;-67
2021/12/02 07:25:27;;;;;;;4.68;1.77;;;;;;;;;;5133880;27;20052;-67
2021/12/02 07:27:54;;;;;;;7.82;1.42;;;;;;;;;;5134882;27;20408;-67
2021/12/02 07:30:20;;;;;;;3.33;1.50;;;;;;;;;;5126635;27;20052;-66
2021/12/02 07:32:50;;;;;;;5.10;1.30;;;;;;;;;;5132773;27;20051;-66
2021/12/02 07:35:17;;;;;;;5.05;1.00;;;;;;;;;;5124378;27;20494;-65
2021/12/02 07:37:44;;;;;;;2.00;1.45;;;;;;;;;;5132132;27;20051;-67
2021/12/02 07:40:12;;;;;;;10.63;1.88;;;;;;;;;;5114018;27;20052;-67
2021/12/02 07:42:38;;;;;;;5.97;1.60;;;;;;;;;;5134964;27;20058;-68
2021/12/02 07:45:05;;;;;;;3.17;1.35;;;;;;;;;;5130489;27;20054;-66
2021/12/02 07:47:32;;;;;;;2.35;0.93;;;;;;;;;;5113913;27;20062;-66
2021/12/02 07:49:59;;;;;;;4.03;0.90;;;;;;;;;;5124175;27;20086;-67
2021/12/02 07:52:33;;;;;;;3.63;1.05;;;;;;;;;;5119331;27;20052;-67
2021/12/02 07:55:03;;;;;;;8.13;1.45;;;;;;;;;;5134309;27;20052;-67
2021/12/02 07:57:31;;;;;;;5.65;1.70;;;;;;;;;;5131894;27;20142;-66
2021/12/02 07:59:57;;;;;;;1.55;0.88;;;;;;;;;;5126686;27;20043;-66
2021/12/02 08:02:25;;;;;;;2.88;1.17;;;;;;;;;;5113813;28;20052;-68
2021/12/02 08:04:52;;;;;;;1.55;0.90;;;;;;;;;;5115097;27;20122;-68
2021/12/02 08:07:18;;;;;;;3.33;1.20;;;;;;;;;;5113602;27;20147;-67
2021/12/02 08:09:44;;;;;;;2.47;0.95;;;;;;;;;;5119058;27;20514;-68
2021/12/02 08:12:11;;;;;;;3.47;0.85;;;;;;;;;;5134093;27;20126;-66
2021/12/02 08:14:37;;;;;;;3.88;1.20;;;;;;;;;;5130802;27;20051;-66
2021/12/02 08:17:03;;;;;;;5.47;1.27;;;;;;;;;;5132739;27;20086;-66
2021/12/02 08:19:30;;;;;;;1.30;0.95;;;;;;;;;;5132812;27;20109;-67
2021/12/02 08:21:56;;;;;;;1.50;0.85;;;;;;;;;;5131887;27;20051;-67
2021/12/02 08:24:25;;;;;;;1.20;0.70;;;;;;;;;;5117143;27;20052;-68
2021/12/02 08:26:54;;;;;;;3.45;1.17;;;;;;;;;;5129853;27;20138;-66
2021/12/02 08:29:22;;;;;;;4.00;1.08;;;;;;;;;;5136818;27;20055;-67
2021/12/02 08:31:48;;;;;;;2.28;1.38;;;;;;;;;;5133811;27;20052;-68
2021/12/02 08:34:16;;;;;;;2.10;1.40;;;;;;;;;;5133889;27;20054;-69
2021/12/02 08:36:49;;;;;;;4.88;2.03;;;;;;;;;;5137687;27;20075;-68
2021/12/02 08:39:18;;;;;;;5.63;2.35;;;;;;;;;;5137351;27;20051;-66
2021/12/02 08:41:47;;;;;;;3.65;1.65;;;;;;;;;;5137605;27;20513;-68
2021/12/02 08:44:14;;;;;;;5.03;1.60;;;;;;;;;;5137506;27;20080;-68
2021/12/02 08:46:41;;;;;;;5.95;1.55;;;;;;;;;;5133345;27;20414;-66
2021/12/02 08:49:07;;;;;;;4.03;1.88;;;;;;;;;;5139838;27;20057;-68
2021/12/02 08:51:33;;;;;;;4.25;1.80;;;;;;;;;;5136368;27;20101;-68
2021/12/02 08:53:59;;;;;;;5.80;1.60;;;;;;;;;;5134068;27;20142;-67
2021/12/02 08:56:26;;;;;;;5.97;1.70;;;;;;;;;;5135868;27;20056;-68
2021/12/02 08:58:52;;;;;;;2.63;1.10;;;;;;;;;;5133495;27;20529;-67
2021/12/02 09:01:19;;;;;;;3.25;1.50;;;;;;;;;;5135096;27;20066;-68
2021/12/02 09:03:46;;;;;;;1.92;1.30;;;;;;;;;;5133552;27;20495;-67
2021/12/02 09:06:12;;;;;;;4.78;1.73;;;;;;;;;;5135015;27;20489;-67
2021/12/02 09:08:40;;;;;;;5.00;1.70;;;;;;;;;;5140478;27;20412;-67
2021/12/02 09:11:06;;;;;;;2.97;1.35;;;;;;;;;;5122015;27;20142;-70
2021/12/02 09:13:32;;;;;;;2.97;1.40;;;;;;;;;;5116848;27;20101;-67
2021/12/02 09:15:59;;;;;;;3.42;1.63;;;;;;;;;;5142177;27;20105;-70
2021/12/02 09:18:26;;;;;;;2.53;1.35;;;;;;;;;;5129915;27;20587;-68
2021/12/02 09:20:52;;;;;;;4.00;1.23;;;;;;;;;;5118244;27;20147;-69
2021/12/02 09:23:19;;;;;;;3.28;1.20;;;;;;;;;;5138251;27;20051;-68
2021/12/02 09:25:45;;;;;;;3.20;1.30;;;;;;;;;;5131381;27;20076;-68
2021/12/02 09:28:12;;;;;;;2.15;1.10;;;;;;;;;;5118201;27;20048;-68
2021/12/02 09:30:40;;;;;;;5.05;1.35;;;;;;;;;;5131206;27;20055;-67
2021/12/02 09:33:07;;;;;;;2.72;0.80;;;;;;;;;;5124793;27;20052;-69
2021/12/02 09:35:35;;;;;;;3.92;1.33;;;;;;;;;;5121867;27;20052;-69
2021/12/02 09:38:05;;;;;;;3.08;1.20;;;;;;;;;;5124327;27;20051;-68
2021/12/02 09:40:31;;;;;;;3.53;0.88;;;;;;;;;;5127989;27;20063;-69
2021/12/02 09:42:58;;;;;;;2.05;0.80;;;;;;;;;;5125689;27;20158;-68
2021/12/02 09:45:24;;;;;;;4.63;1.10;;;;;;;;;;5124055;27;20044;-68
2021/12/02 09:47:52;;;;;;;2.22;1.10;;;;;;;;;;5115797;27;20555;-70
2021/12/02 09:50:28;;;;;;;3.05;1.13;;;;;;;;;;5130962;27;20055;-68
2021/12/02 09:52:59;;;;;;;;;;;;;;;;;;5131060;27;20550;-67
2021/12/02 09:55:34;;;;;;;4.13;1.10;;;;;;;;;;5135577;27;46413;-68
2021/12/02 09:58:04;;;;;;;4.68;1.13;;;;;;;;;;5119252;27;20579;-68
2021/12/02 10:03:33;;;;;;;1.30;1.08;;;;;;;;;;5102264;27;20082;-68
2021/12/02 10:06:02;;;;;;;4.50;0.95;;;;;;;;;;5133701;27;20609;-68
2021/12/02 10:08:31;;;;;;;9.65;1.10;;;;;;;;;;5126138;27;20140;-68
2021/12/02 10:11:03;;;;;;;1.40;1.10;;;;;;;;;;5115302;28;20435;-68
2021/12/02 10:13:39;;;;;;;5.15;1.00;;;;;;;;;;5126138;27;20054;-68
2021/12/02 10:16:08;;;;;;;1.50;0.60;;;;;;;;;;5135370;27;20127;-69
2021/12/02 10:18:35;;;;;;;3.50;1.42;;;;;;;;;;5139435;27;20094;-69
2021/12/02 10:21:20;;;;;;;2.70;0.80;;;;;;;;;;5117713;27;20054;-68
2021/12/02 10:23:47;;;;;;;5.68;0.73;;;;;;;;;;5130807;27;20500;-68
2021/12/02 10:26:18;;;;;;;0.80;0.77;;;;;;;;;;5138499;27;20056;-69
2021/12/02 10:28:45;;;;;;;2.60;0.93;;;;;;;;;;5133597;27;20051;-68
2021/12/02 10:31:16;;;;;;;0.93;0.85;;;;;;;;;;5135685;27;20047;-69
2021/12/02 10:33:47;;;;;;;0.75;0.50;;;;;;;;;;5124248;27;20048;-67
2021/12/02 10:36:33;;;;;;;3.28;0.70;;;;;;;;;;5132429;27;20052;-67
2021/12/02 10:39:21;;;;;;;2.25;0.60;;;;;;;;;;5133830;27;20048;-67
2021/12/02 10:42:19;;;;;;;2.65;0.68;;;;;;;;;;5136401;27;20109;-68
2021/12/02 10:44:45;;;;;;;0.73;0.40;;;;;;;;;;5126349;27;20085;-68
2021/12/02 10:47:14;;;;;;;0.52;0.52;;;;;;;;;;5146350;27;20052;-68
2021/12/02 10:49:45;;;;;;;1.27;0.50;;;;;;;;;;5135327;27;20175;-69
2021/12/02 10:52:14;;;;;;;2.40;0.85;;;;;;;;;;5135518;27;20507;-68
2021/12/02 10:54:42;;;;;;;1.00;0.50;;;;;;;;;;5137579;27;20144;-67
2021/12/02 10:57:19;;;;;;;0.73;0.70;;;;;;;;;;5131782;27;20181;-69
2021/12/02 10:59:48;;;;;;;2.50;0.88;;;;;;;;;;5129310;27;20748;-69
2021/12/02 11:02:23;;;;;;;1.15;0.65;;;;;;;;;;5133120;27;20078;-69
2021/12/02 11:04:53;;;;;;;1.63;0.50;;;;;;;;;;5123703;27;20055;-68
2021/12/02 11:07:23;;;;;;;0.93;0.60;;;;;;;;;;5142071;27;20052;-67
2021/12/02 11:09:50;;;;;;;1.85;0.57;;;;;;;;;;5139350;27;20048;-67
2021/12/02 11:12:19;;;;;;;0.45;0.43;;;;;;;;;;5134648;27;20560;-67
2021/12/02 11:14:52;;;;;;;0.73;0.47;;;;;;;;;;5136730;27;20130;-68
2021/12/02 11:17:18;;;;;;;0.75;0.55;;;;;;;;;;5145532;27;20484;-68
2021/12/02 11:19:48;;;;;;;1.83;0.50;;;;;;;;;;5119926;27;20534;-67
2021/12/02 11:22:21;;;;;;;0.88;0.70;;;;;;;;;;5116253;27;20089;-67
2021/12/02 11:24:48;;;;;;;4.95;1.38;;;;;;;;;;5130025;27;20051;-67
2021/12/02 11:27:19;;;;;;;1.85;1.40;;;;;;;;;;5146587;27;20049;-68
2021/12/02 11:30:04;;;;;;;2.88;1.38;;;;;;;;;;5135195;27;20047;-66
2021/12/02 11:32:40;;;;;;;2.60;1.08;;;;;;;;;;5134290;27;20056;-66
2021/12/02 11:35:09;;;;;;;1.48;1.38;;;;;;;;;;5132216;27;20048;-67
2021/12/02 11:37:36;;;;;;;4.32;1.67;;;;;;;;;;5134718;27;20047;-67
2021/12/02 11:40:22;;;;;;;1.48;1.38;;;;;;;;;;5134607;27;20058;-67
2021/12/02 11:42:50;;;;;;;1.30;1.02;;;;;;;;;;5133130;27;20101;-68
2021/12/02 11:45:18;;;;;;;1.20;1.10;;;;;;;;;;5130697;27;20134;-70
2021/12/02 11:47:45;;;;;;;3.20;1.30;;;;;;;;;;5155219;27;20047;-68
2021/12/02 11:50:12;;;;;;;1.27;0.95;;;;;;;;;;5127361;27;20483;-70
2021/12/02 11:52:40;;;;;;;2.10;1.15;;;;;;;;;;5133485;27;20154;-70
2021/12/02 11:55:09;;;;;;;1.63;0.95;;;;;;;;;;5124278;27;20487;-68
2021/12/02 11:57:36;;;;;;;3.72;1.17;;;;;;;;;;5114600;27;20517;-66
2021/12/02 12:00:07;;;;;;;1.65;1.10;;;;;;;;;;5129022;27;20143;-66
2021/12/02 12:02:33;;;;;;;2.65;1.42;;;;;;;;;;5133037;27;20055;-68
2021/12/02 12:05:02;;;;;;;2.28;1.50;;;;;;;;;;5116427;27;20054;-71
2021/12/02 12:07:58;;;;;;;1.75;1.63;;;;;;;;;;5133554;27;20150;-69
2021/12/02 12:10:26;;;;;;;1.60;1.50;;;;;;;;;;5116134;27;20142;-69
2021/12/02 12:13:09;;;;;;;5.47;3.22;;;;;;;;;;5125217;27;20062;-64
2021/12/02 12:15:37;;;;;;;2.40;1.95;;;;;;;;;;5135431;27;20043;-68
2021/12/02 12:18:07;;;;;;;2.50;1.85;;;;;;;;;;5137261;27;20200;-69
2021/12/02 12:20:52;;;;;;;2.97;2.00;;;;;;;;;;5134152;27;20063;-69
2021/12/02 12:23:28;;;;;;;3.65;2.15;;;;;;;;;;5133478;27;20132;-66
2021/12/02 12:26:09;;;;;;;3.53;1.67;;;;;;;;;;5134065;27;20106;-67
2021/12/02 12:28:54;;;;;;;2.75;1.80;;;;;;;;;;5122170;27;20526;-67
2021/12/02 12:31:21;;;;;;;3.10;2.00;;;;;;;;;;5119452;27;20052;-69
2021/12/02 12:33:47;;;;;;;4.72;2.38;;;;;;;;;;5114426;27;20143;-68
2021/12/02 12:36:33;;;;;;;5.18;2.03;;;;;;;;;;5126235;27;20511;-69
2021/12/02 12:39:16;;;;;;;2.20;1.65;;;;;;;;;;5122153;27;20052;-68
2021/12/02 12:41:42;;;;;;;2.05;1.80;;;;;;;;;;5115577;27;20060;-68
2021/12/02 12:44:08;;;;;;;2.25;1.90;;;;;;;;;;5117577;27;20463;-68
2021/12/02 12:46:35;;;;;;;2.25;2.00;;;;;;;;;;5131783;27;20056;-69
2021/12/02 12:49:15;;;;;;;6.18;1.80;;;;;;;;;;5133347;27;20139;-69
2021/12/02 12:51:48;;;;;;;3.95;1.48;;;;;;;;;;5134116;27;20507;-69
2021/12/02 12:54:22;;;;;;;3.47;2.35;;;;;;;;;;5126890;27;20052;-69
2021/12/02 12:57:01;;;;;;;3.05;1.35;;;;;;;;;;5121574;27;20145;-69
2021/12/02 12:59:27;;;;;;;3.47;1.48;;;;;;;;;;5131169;27;20142;-69
2021/12/02 13:01:58;;;;;;;2.60;1.88;;;;;;;;;;5129371;27;20780;-69
2021/12/02 13:04:26;;;;;;;5.68;2.80;;;;;;;;;;5119524;27;20048;-68
2021/12/02 13:06:53;;;;;;;2.03;1.50;;;;;;;;;;5127680;27;20555;-67
2021/12/02 13:09:44;;;;;;;3.70;1.90;;;;;;;;;;5128854;27;20110;-68
2021/12/02 13:12:12;;;;;;;4.68;1.90;;;;;;;;;;5114791;27;20057;-68
2021/12/02 13:14:40;;;;;;;11.95;2.50;;;;;;;;;;5119127;27;20064;-69
2021/12/02 13:17:24;;;;;;;5.68;2.08;;;;;;;;;;5127761;27;20351;-68
2021/12/02 13:19:58;;;;;;;2.83;1.73;;;;;;;;;;5113777;27;20055;-68
2021/12/02 13:22:24;;;;;;;5.55;1.98;;;;;;;;;;5123995;27;20079;-68
2021/12/02 13:24:57;;;;;;;5.30;1.65;;;;;;;;;;5124878;27;20058;-69
2021/12/02 13:27:25;;;;;;;25.23;2.45;;;;;;;;;;5129240;27;20143;-67
2021/12/02 13:29:53;;;;;;;7.22;1.83;;;;;;;;;;5131188;27;20079;-70
2021/12/02 13:32:19;;;;;;;3.70;1.60;;;;;;;;;;5129110;27;20529;-69
2021/12/02 13:34:45;;;;;;;5.03;2.63;;;;;;;;;;5113135;27;20079;-70
2021/12/02 13:37:14;;;;;;;4.30;1.90;;;;;;;;;;5127176;27;20055;-71
2021/12/02 13:39:42;;;;;;;3.75;1.60;;;;;;;;;;5123741;27;20524;-69
2021/12/02 13:42:13;;;;;;;2.50;1.42;;;;;;;;;;5126681;27;20056;-71
2021/12/02 13:44:44;;;;;;;3.10;1.75;;;;;;;;;;5126008;27;20140;-70
2021/12/02 13:47:16;;;;;;;6.53;1.92;;;;;;;;;;5123177;27;20051;-68
2021/12/02 13:49:49;;;;;;;4.10;1.48;;;;;;;;;;5136393;27;20055;-69
2021/12/02 13:52:17;;;;;;;4.10;1.92;;;;;;;;;;5130825;27;20507;-70
2021/12/02 13:54:56;;;;;;;4.97;1.45;;;;;;;;;;5140531;27;20143;-69
2021/12/02 13:57:36;;;;;;;3.70;1.40;;;;;;;;;;5132669;27;20066;-71
2021/12/02 14:00:25;;;;;;;5.70;1.48;;;;;;;;;;5132313;27;20106;-68
2021/12/02 14:03:22;;;;;;;3.60;1.23;;;;;;;;;;5129496;27;20153;-69
2021/12/02 14:05:54;;;;;;;3.80;1.23;;;;;;;;;;5133366;27;20047;-73
2021/12/02 14:08:21;;;;;;;2.75;1.27;;;;;;;;;;5133417;27;20051;-70
2021/12/02 14:10:50;;;;;;;2.20;0.85;;;;;;;;;;5133431;27;20158;-69
2021/12/02 14:13:17;;;;;;;8.23;1.08;;;;;;;;;;5134611;27;20050;-69
2021/12/02 14:15:47;;;;;;;4.05;1.35;;;;;;;;;;5131532;27;20090;-69
2021/12/02 14:18:20;;;;;;;2.60;1.08;;;;;;;;;;5134481;27;20066;-70
2021/12/02 14:20:50;;;;;;;5.22;1.15;;;;;;;;;;5147839;27;20071;-70
2021/12/02 14:23:17;;;;;;;4.35;1.15;;;;;;;;;;5125274;27;20495;-70
2021/12/02 14:25:51;;;;;;;5.60;1.20;;;;;;;;;;5135481;27;20051;-67
2021/12/02 14:28:22;;;;;;;2.40;0.98;;;;;;;;;;5127365;27;20150;-69
2021/12/02 14:30:50;;;;;;;3.20;1.00;;;;;;;;;;5134343;27;20059;-70
2021/12/02 14:33:24;;;;;;;2.90;0.90;;;;;;;;;;5135058;27;20521;-70
2021/12/02 14:35:53;;;;;;;3.22;1.08;;;;;;;;;;5126108;27;20058;-70
2021/12/02 14:38:25;;;;;;;3.00;1.00;;;;;;;;;;5129348;27;20047;-70
2021/12/02 14:40:56;;;;;;;3.83;0.80;;;;;;;;;;5135003;27;20047;-72
2021/12/02 14:43:23;;;;;;;5.70;0.98;;;;;;;;;;5134015;27;20559;-70
2021/12/02 14:45:52;;;;;;;4.30;1.00;;;;;;;;;;5134865;27;20043;-70
2021/12/02 14:48:22;;;;;;;8.55;1.75;;;;;;;;;;5135258;27;20052;-70
2021/12/02 14:51:18;;;;;;;3.80;1.30;;;;;;;;;;5135192;27;20109;-69
2021/12/02 14:53:46;;;;;;;2.63;0.80;;;;;;;;;;5101874;27;20096;-69
2021/12/02 14:56:34;;;;;;;5.00;1.10;;;;;;;;;;5128567;27;20059;-71
2021/12/02 14:59:01;;;;;;;;;;;;;;;;;;5123170;27;20510;-69
2021/12/02 15:01:27;;;;;;;;;;;;;;;;;;5134259;27;46837;-68
2021/12/02 15:03:53;;;;;;;6.43;1.08;;;;;;;;;;5134169;27;45027;-68
2021/12/02 15:06:36;;;;;;;6.75;1.25;;;;;;;;;;5144279;27;20059;-70
2021/12/02 15:09:02;;;;;;;4.68;1.10;;;;;;;;;;5132679;27;20134;-70
2021/12/02 15:11:32;;;;;;;5.28;1.33;;;;;;;;;;5130258;27;20113;-69
2021/12/02 15:13:58;;;;;;;9.77;1.33;;;;;;;;;;5135280;27;20047;-69